罗盘
风向 的 Ancona Falconara Airport 1/19
风: 1 kt, 1 beaufort

1 kt

改变
0 2.000 4.000 6.000 8.000 10.000
SCT 7.100 ft
OVC 9.600 ft
METAR LIPY 301620Z AUTO VRB01KT 9999 SCT071/// OVC096/// 19/17 Q1010

METAR Ancona Falconara Airport - LIPY/AOI

Ancona Falconara Airport是Ancona,意大利中的中型机场。 该机场有3条跑道: 1/19, 4/22 和 8/26. 该领域的国际民航组织标志是LIPY 它的国际航空运输协会代码是AOI.

这份报告是针对2022年9月30日 18:20, 当地时间在Ancona Falconara Airport进行的。

机场观察

可变方向的风很小或没有风。

可见度为10 km 或者更多。

有疏云,零星散落的云朵在7.100 ft的高度 和 乌云密布在9.600 ft的高度。 破损或更高的上限为9.600 ft。

温度和风寒是19 °C。 露点为17 °C,相对湿度为88%。 海平面上的气压为1010 hPa (QNH)。

白天

今天,太阳从07:02升起,在18:50降落。 这适用于Ancona Falconara Airport,世界夏令时可能有所不同。 当地时间与世界标准时间之间的时差为+2 小时。 夏令时目前正在进行中。

公司介绍

我们没有关于这个机场的公司信息。

体会

到Vliegles.nl去找飞行课程,跳伞和其他飞行体验。 浏览页面,了解Ancona Falconara Airport附近所有可用的活动。 你也可以使用搜索功能来寻找你所在地附近的特定飞行课程、跳伞或其他飞行体验。

跑道

Id 标题 侧风 逆风 侧风 %
1/19 010°-190° 17 %
4/22 045°-225° 71 %
8/26 080°-260° 98 %

逆风成分最大的方向会被突出显示,并用于横风计算。 这并不一定意味着这个方向在使用。

乌云

7.100 ft SCT 疏云,零星散落的云朵
9.600 ft OVC 乌云密布

温度 & 天气

温度 19 °C
露点 17 °C
相对湿度 88%
Kp-index 1 (0-9)

白天

日出
07:02
中午
12:56
日落
18:50 (12m)

小工具

你想在你的网站上有一个关于Ancona Falconara Airport的当前航空天气(METAR)的小部件吗?

</> 显示HTML代码

我们和第三方通过cookies跟踪您在我们网站上的上网行为。如果您继续,我们认为您同意我们的cookie政策。 了解更多